Time;durP1;ratioP1;P1;durP2;ratioP2;P2;SDS_P1;SDS_P2;PMS_P1;PMS_P2;Temp;Humidity;BMP_temperature;BMP_pressure;BME280_temperature;BME280_humidity;BME280_pressure;Samples;Min_cycle;Max_cycle;Signal;HPM_P1;HPM_P2
2024/01/16 00:03:46;;;;;;;101.82;95.15;;;0.60;99.90;;;;;;12434183;28;20042;-33
2024/01/16 00:09:52;;;;;;;100.43;94.15;;;0.70;99.90;;;;;;12380587;28;20062;-35
2024/01/16 00:15:56;;;;;;;98.40;92.30;;;0.80;99.90;;;;;;12360246;28;20061;-34
2024/01/16 00:22:00;;;;;;;102.70;95.97;;;0.90;99.90;;;;;;12356645;28;20046;-35
2024/01/16 00:28:02;;;;;;;110.13;103.10;;;0.90;99.90;;;;;;12372365;28;20101;-35
2024/01/16 00:34:04;;;;;;;114.70;107.60;;;0.80;99.90;;;;;;12391222;28;20051;-36
2024/01/16 00:40:08;;;;;;;110.63;103.63;;;0.90;99.90;;;;;;12377954;28;20061;-36
2024/01/16 00:46:11;;;;;;;103.60;97.28;;;0.90;99.90;;;;;;12375196;28;20479;-35
2024/01/16 00:52:13;;;;;;;100.78;94.63;;;1.00;99.90;;;;;;12345841;28;20058;-36
2024/01/16 00:58:15;;;;;;;99.80;93.60;;;0.80;99.90;;;;;;12384198;28;20058;-36
2024/01/16 01:04:17;;;;;;;94.00;88.28;;;0.80;99.90;;;;;;12400884;28;20513;-36
2024/01/16 01:10:18;;;;;;;91.40;85.38;;;0.90;99.90;;;;;;12425721;28;20050;-35
2024/01/16 01:16:21;;;;;;;91.53;85.72;;;0.80;99.90;;;;;;12370629;28;20058;-36
2024/01/16 01:22:23;;;;;;;89.93;84.30;;;0.70;99.90;;;;;;12368368;28;20066;-36
2024/01/16 01:28:25;;;;;;;85.28;79.57;;;0.70;99.90;;;;;;12346385;28;20054;-35
2024/01/16 01:34:27;;;;;;;86.22;80.72;;;0.70;99.90;;;;;;12361391;28;20078;-35
2024/01/16 01:40:29;;;;;;;86.78;81.57;;;0.60;99.90;;;;;;12391776;28;20083;-35
2024/01/16 01:46:34;;;;;;;85.63;80.30;;;0.60;99.90;;;;;;12393260;28;20049;-36
2024/01/16 01:52:40;;;;;;;86.43;81.13;;;0.60;99.90;;;;;;12356309;28;20094;-35
2024/01/16 01:58:48;;;;;;;88.00;82.57;;;0.60;99.90;;;;;;12362370;28;20502;-35
2024/01/16 02:04:51;;;;;;;94.18;88.32;;;0.60;99.90;;;;;;12354556;28;20050;-35
2024/01/16 02:10:53;;;;;;;92.63;86.53;;;0.50;99.90;;;;;;12369737;28;20050;-35
2024/01/16 02:16:55;;;;;;;90.68;84.88;;;0.50;99.90;;;;;;12371113;28;20060;-35
2024/01/16 02:23:00;;;;;;;94.68;88.20;;;0.50;99.90;;;;;;12378923;28;20042;-36
2024/01/16 02:29:04;;;;;;;98.05;91.93;;;0.50;99.90;;;;;;12373209;28;20564;-36
2024/01/16 02:35:07;;;;;;;94.55;88.75;;;0.50;99.90;;;;;;12361278;28;20058;-34
2024/01/16 02:41:09;;;;;;;94.25;88.30;;;0.50;99.90;;;;;;12363732;28;20053;-35
2024/01/16 02:47:10;;;;;;;96.80;90.70;;;0.60;99.90;;;;;;12367041;28;20673;-35
2024/01/16 02:53:12;;;;;;;91.65;85.80;;;0.50;99.90;;;;;;12357908;28;20058;-35
2024/01/16 02:59:14;;;;;;;94.60;88.50;;;0.50;99.90;;;;;;12363290;28;20062;-35
2024/01/16 03:05:16;;;;;;;94.50;88.15;;;0.50;99.90;;;;;;12380884;28;20046;-33
2024/01/16 03:11:18;;;;;;;96.30;89.43;;;0.50;99.90;;;;;;12380230;28;20188;-36
2024/01/16 03:17:21;;;;;;;92.03;85.93;;;0.50;99.90;;;;;;12359269;28;20499;-35
2024/01/16 03:23:23;;;;;;;93.57;87.47;;;0.60;99.90;;;;;;12406935;28;20374;-35
2024/01/16 03:29:25;;;;;;;94.00;87.85;;;0.60;99.90;;;;;;12353647;28;20054;-35
2024/01/16 03:35:27;;;;;;;96.40;90.10;;;0.50;99.90;;;;;;12373520;28;20522;-35
2024/01/16 03:41:29;;;;;;;94.13;88.07;;;0.40;99.90;;;;;;12397016;28;20043;-35
2024/01/16 03:47:31;;;;;;;90.47;84.38;;;0.40;99.90;;;;;;12371267;28;20050;-36
2024/01/16 03:53:33;;;;;;;91.20;85.47;;;0.30;99.90;;;;;;12412876;28;20065;-35
2024/01/16 03:59:38;;;;;;;94.10;88.10;;;0.40;99.90;;;;;;12380645;28;20054;-35
2024/01/16 04:05:40;;;;;;;90.10;84.32;;;0.40;99.90;;;;;;12359645;28;20414;-36
2024/01/16 04:11:42;;;;;;;90.45;84.65;;;0.30;99.90;;;;;;12373084;28;20053;-35
2024/01/16 04:17:44;;;;;;;88.90;83.10;;;0.40;99.90;;;;;;12369588;28;20066;-36
2024/01/16 04:23:46;;;;;;;91.50;85.50;;;0.30;99.90;;;;;;12369522;28;20050;-35
2024/01/16 04:29:48;;;;;;;94.03;87.75;;;0.40;99.90;;;;;;12373372;28;20051;-36
2024/01/16 04:35:50;;;;;;;93.43;87.10;;;0.40;99.90;;;;;;12364678;28;20133;-35
2024/01/16 04:41:52;;;;;;;95.55;88.75;;;0.30;99.90;;;;;;12373706;28;20046;-35
2024/01/16 04:47:54;;;;;;;99.03;92.05;;;0.10;99.90;;;;;;12379670;28;20517;-36
2024/01/16 04:53:56;;;;;;;95.40;89.00;;;0.00;99.90;;;;;;12367488;28;20483;-35
2024/01/16 04:59:58;;;;;;;95.60;89.25;;;0.00;99.90;;;;;;12360960;28;20046;-35
2024/01/16 05:06:00;;;;;;;90.25;83.50;;;0.10;99.90;;;;;;12396453;28;20095;-35
2024/01/16 05:12:03;;;;;;;93.22;86.22;;;0.20;99.90;;;;;;12357832;28;20046;-35
2024/01/16 05:18:05;;;;;;;90.68;84.30;;;0.20;99.90;;;;;;12366967;28;20533;-35
2024/01/16 05:24:08;;;;;;;91.13;84.88;;;0.20;99.90;;;;;;12388754;28;20042;-35
2024/01/16 05:30:10;;;;;;;87.25;81.22;;;0.20;99.90;;;;;;12354370;28;20511;-35
2024/01/16 05:36:12;;;;;;;89.35;82.70;;;0.30;99.90;;;;;;12370194;28;20061;-34
2024/01/16 05:42:14;;;;;;;88.85;82.65;;;0.30;99.90;;;;;;12365757;28;20499;-35
2024/01/16 05:48:16;;;;;;;99.03;91.82;;;0.30;99.90;;;;;;12357500;28;20047;-35
2024/01/16 05:54:18;;;;;;;98.07;90.88;;;0.20;99.90;;;;;;12358379;28;20489;-35
2024/01/16 06:00:22;;;;;;;97.75;90.70;;;0.20;99.90;;;;;;12352896;28;20057;-35
2024/01/16 06:06:25;;;;;;;97.57;90.13;;;0.20;99.90;;;;;;12355656;28;20255;-35
2024/01/16 06:12:26;;;;;;;97.93;90.82;;;0.20;99.90;;;;;;12375135;28;20090;-35
2024/01/16 06:18:28;;;;;;;95.32;88.57;;;0.30;99.90;;;;;;12362915;28;20062;-34
2024/01/16 06:24:36;;;;;;;94.63;87.63;;;0.30;99.90;;;;;;12346814;28;21162;-35
2024/01/16 06:30:38;;;;;;;97.20;90.10;;;0.30;99.90;;;;;;12353289;28;20054;-35
2024/01/16 06:36:40;;;;;;;102.85;95.47;;;0.20;99.90;;;;;;12349586;28;20050;-35
2024/01/16 06:42:42;;;;;;;98.97;91.68;;;0.00;99.90;;;;;;12392931;28;20123;-34
2024/01/16 06:48:44;;;;;;;100.85;93.35;;;-0.10;99.90;;;;;;12365075;28;20051;-34
2024/01/16 06:54:46;;;;;;;103.80;96.28;;;-0.10;99.90;;;;;;12345700;28;20457;-35
2024/01/16 07:00:48;;;;;;;104.82;96.80;;;-0.20;99.90;;;;;;12345768;28;20054;-35
2024/01/16 07:06:50;;;;;;;107.43;99.65;;;-0.10;99.90;;;;;;12358281;28;20459;-35
2024/01/16 07:12:52;;;;;;;108.65;100.82;;;-0.20;99.90;;;;;;12376531;28;20087;-35
2024/01/16 07:18:55;;;;;;;105.93;98.10;;;-0.20;99.90;;;;;;12377584;28;20407;-39
2024/01/16 07:24:57;;;;;;;108.85;100.80;;;-0.10;99.90;;;;;;12350800;28;20521;-34
2024/01/16 07:30:59;;;;;;;111.50;103.50;;;-0.10;99.90;;;;;;12378913;28;20089;-35
2024/01/16 07:37:01;;;;;;;110.50;102.45;;;-0.20;99.90;;;;;;12361849;28;20092;-35
2024/01/16 07:43:03;;;;;;;114.60;106.13;;;-0.10;99.90;;;;;;12398636;28;20074;-35
2024/01/16 07:49:05;;;;;;;116.35;108.07;;;-0.20;99.90;;;;;;12357260;28;20528;-35
2024/01/16 07:55:07;;;;;;;113.32;105.22;;;-0.10;99.90;;;;;;12367605;28;20589;-33
2024/01/16 08:01:09;;;;;;;124.60;115.65;;;0.10;99.90;;;;;;12366063;28;20050;-35
2024/01/16 08:07:11;;;;;;;118.65;110.10;;;0.00;99.90;;;;;;12373259;28;20050;-35
2024/01/16 08:13:13;;;;;;;119.85;111.30;;;0.20;99.90;;;;;;12365348;28;20495;-35
2024/01/16 08:19:14;;;;;;;117.60;109.63;;;0.30;99.90;;;;;;12362948;28;20211;-35
2024/01/16 08:25:17;;;;;;;108.93;101.18;;;0.40;99.90;;;;;;12358118;28;20479;-35
2024/01/16 08:31:18;;;;;;;115.35;107.20;;;0.50;99.90;;;;;;12352944;28;20058;-34
2024/01/16 08:37:20;;;;;;;114.30;106.65;;;0.50;99.90;;;;;;12341224;28;20141;-35
2024/01/16 08:43:22;;;;;;;113.72;105.82;;;0.50;99.90;;;;;;12346429;28;20054;-35
2024/01/16 08:49:24;;;;;;;123.47;115.18;;;0.50;99.90;;;;;;12374971;28;20141;-35
2024/01/16 08:55:26;;;;;;;116.35;108.45;;;0.40;99.90;;;;;;12357142;28;20066;-35
2024/01/16 09:01:28;;;;;;;114.35;106.63;;;0.60;99.90;;;;;;12368845;28;20061;-35
2024/01/16 09:07:30;;;;;;;110.85;103.45;;;0.60;99.90;;;;;;12350282;28;20058;-35
2024/01/16 09:13:32;;;;;;;106.95;99.72;;;0.60;99.90;;;;;;12368300;28;20061;-35
2024/01/16 09:19:34;;;;;;;103.88;96.30;;;0.70;99.90;;;;;;12363120;28;20047;-35
2024/01/16 09:25:36;;;;;;;111.10;103.30;;;0.80;99.90;;;;;;12369434;28;20467;-35
2024/01/16 09:31:38;;;;;;;104.43;97.30;;;0.60;99.90;;;;;;12362982;28;20125;-35
2024/01/16 09:37:40;;;;;;;103.20;95.95;;;0.80;99.90;;;;;;12335826;28;20072;-35
2024/01/16 09:43:43;;;;;;;103.47;96.60;;;0.90;99.90;;;;;;12370625;28;20038;-35
2024/01/16 09:49:47;;;;;;;104.72;97.57;;;0.90;99.90;;;;;;12362364;28;20101;-35
2024/01/16 09:55:52;;;;;;;102.22;95.15;;;0.80;99.90;;;;;;12341947;28;20043;-35
2024/01/16 10:01:55;;;;;;;103.80;96.80;;;0.90;99.90;;;;;;12355576;28;20090;-35
2024/01/16 10:07:58;;;;;;;95.43;89.07;;;0.90;99.90;;;;;;12358607;28;20463;-34
2024/01/16 10:14:01;;;;;;;101.50;94.60;;;0.90;99.90;;;;;;12355999;28;20154;-35
2024/01/16 10:20:04;;;;;;;99.47;92.80;;;1.00;99.90;;;;;;12357336;28;20059;-35
2024/01/16 10:26:11;;;;;;;97.90;91.40;;;1.00;99.90;;;;;;12344370;28;20043;-35
2024/01/16 10:32:13;;;;;;;99.70;92.97;;;1.00;99.90;;;;;;12361929;28;20464;-36
2024/01/16 10:38:25;;;;;;;97.85;91.18;;;1.00;99.90;;;;;;12360714;28;20129;-35
2024/01/16 10:44:27;;;;;;;99.63;92.65;;;1.00;99.90;;;;;;12375666;28;20046;-35
2024/01/16 10:50:30;;;;;;;104.47;97.22;;;1.00;99.90;;;;;;12373070;28;20068;-35
2024/01/16 10:56:32;;;;;;;106.10;98.80;;;0.90;99.90;;;;;;12342357;28;20058;-34
2024/01/16 11:02:49;;;;;;;111.13;103.38;;;1.00;99.90;;;;;;12352941;28;20050;-34
2024/01/16 11:08:52;;;;;;;105.63;98.32;;;0.90;99.90;;;;;;12375609;28;20057;-35
2024/01/16 11:14:55;;;;;;;103.43;96.43;;;1.10;99.90;;;;;;12346201;28;20050;-35
2024/01/16 11:20:59;;;;;;;102.53;95.63;;;1.00;99.90;;;;;;12350796;28;20058;-35
2024/01/16 11:27:22;;;;;;;106.20;99.03;;;1.00;99.90;;;;;;12345653;28;20047;-35
2024/01/16 11:33:33;;;;;;;105.75;98.57;;;1.10;99.90;;;;;;12360276;28;20506;-35
2024/01/16 11:39:35;;;;;;;102.60;95.50;;;1.10;99.90;;;;;;12368151;28;20106;-35
2024/01/16 11:45:37;;;;;;;106.35;98.68;;;1.10;99.90;;;;;;12367006;28;20043;-35
2024/01/16 11:51:42;;;;;;;99.57;92.72;;;1.10;99.90;;;;;;12356891;28;20138;-35
2024/01/16 11:57:49;;;;;;;;;;;1.10;99.90;;;;;;12362519;28;20049;-35
2024/01/16 12:04:07;;;;;;;106.65;98.97;;;1.10;99.90;;;;;;12372883;28;19937;-35
2024/01/16 12:10:09;;;;;;;111.30;103.35;;;1.00;99.90;;;;;;12378126;28;20050;-35
2024/01/16 12:16:11;;;;;;;96.45;89.85;;;0.90;99.90;;;;;;12359019;28;20046;-35
2024/01/16 12:22:14;;;;;;;95.10;88.30;;;0.90;99.90;;;;;;12356120;28;20098;-34
2024/01/16 12:28:19;;;;;;;100.55;93.75;;;0.90;99.90;;;;;;12375150;28;20051;-35
2024/01/16 12:34:35;;;;;;;110.70;103.05;;;1.00;99.90;;;;;;12363946;28;20095;-35
2024/01/16 12:40:43;;;;;;;102.55;95.38;;;0.80;99.90;;;;;;12334695;28;20459;-35
2024/01/16 12:46:54;;;;;;;109.25;101.65;;;0.90;99.90;;;;;;12368717;28;20095;-35
2024/01/16 12:53:06;;;;;;;105.15;97.95;;;0.80;99.90;;;;;;12353581;28;20050;-35
2024/01/16 12:59:13;;;;;;;96.95;89.95;;;0.90;99.90;;;;;;12368830;28;20047;-35
2024/01/16 13:05:17;;;;;;;113.63;105.07;;;1.00;99.90;;;;;;12371352;28;20043;-35
2024/01/16 13:11:19;;;;;;;122.25;113.78;;;0.80;99.90;;;;;;12354233;28;20059;-36
2024/01/16 13:17:39;;;;;;;117.88;109.82;;;0.80;99.90;;;;;;12339124;28;20054;-35
2024/01/16 13:23:41;;;;;;;121.40;113.05;;;0.70;99.90;;;;;;12377468;28;20042;-35
2024/01/16 13:29:45;;;;;;;128.30;119.45;;;0.60;99.90;;;;;;12362096;28;20448;-35
2024/01/16 13:35:47;;;;;;;127.72;118.75;;;0.60;99.90;;;;;;12348021;28;20146;-35
2024/01/16 13:41:49;;;;;;;136.45;126.90;;;0.60;99.90;;;;;;12366054;28;20050;-35
2024/01/16 13:47:51;;;;;;;136.93;127.10;;;0.50;99.90;;;;;;12378701;28;20046;-35
2024/01/16 13:53:53;;;;;;;134.63;125.03;;;0.50;99.90;;;;;;12356184;28;20054;-35
2024/01/16 13:59:55;;;;;;;135.30;125.60;;;0.50;99.90;;;;;;12358070;28;20789;-35
2024/01/16 14:05:57;;;;;;;134.15;124.57;;;0.50;99.90;;;;;;12357918;28;20050;-35
2024/01/16 14:11:59;;;;;;;124.55;115.25;;;0.40;99.90;;;;;;12351871;28;20047;-35
2024/01/16 14:18:03;;;;;;;129.05;119.75;;;0.50;99.90;;;;;;12366332;28;20054;-35
2024/01/16 14:24:05;;;;;;;135.85;126.18;;;0.50;99.90;;;;;;12365426;28;20506;-36
2024/01/16 14:30:13;;;;;;;127.97;119.07;;;0.40;99.90;;;;;;12383399;28;20046;-35
2024/01/16 14:36:15;;;;;;;125.70;116.80;;;0.40;99.90;;;;;;12365889;28;20411;-35
2024/01/16 14:42:17;;;;;;;136.10;126.22;;;0.40;99.90;;;;;;12369487;28;20062;-35
2024/01/16 14:48:19;;;;;;;142.98;132.35;;;0.30;99.90;;;;;;12366445;28;20465;-35
2024/01/16 14:54:21;;;;;;;140.35;130.30;;;0.10;99.90;;;;;;12368116;28;20484;-35
2024/01/16 15:00:23;;;;;;;140.98;130.57;;;0.20;99.90;;;;;;12364699;28;20084;-34
2024/01/16 15:06:26;;;;;;;147.35;135.00;;;0.00;99.90;;;;;;12369531;28;20061;-35
2024/01/16 15:12:29;;;;;;;138.07;128.20;;;0.00;99.90;;;;;;12365608;28;20050;-34
2024/01/16 15:18:31;;;;;;;140.05;130.10;;;0.00;99.90;;;;;;12357548;28;20088;-35
2024/01/16 15:24:33;;;;;;;134.15;124.57;;;0.00;99.90;;;;;;12375680;28;20083;-35
2024/01/16 15:30:35;;;;;;;131.50;122.13;;;0.00;99.90;;;;;;12356833;28;20478;-35
2024/01/16 15:36:37;;;;;;;128.07;118.70;;;0.00;99.90;;;;;;12359841;28;20100;-35
2024/01/16 15:42:39;;;;;;;129.50;119.40;;;0.10;99.90;;;;;;12367319;28;20104;-34
2024/01/16 15:48:42;;;;;;;128.18;118.07;;;0.10;99.90;;;;;;12375016;28;20042;-34
2024/01/16 15:54:44;;;;;;;128.23;118.00;;;0.10;99.90;;;;;;12370623;28;20423;-34
2024/01/16 16:00:46;;;;;;;123.93;114.18;;;0.10;99.90;;;;;;12373144;28;20085;-35
2024/01/16 16:06:48;;;;;;;122.68;112.45;;;0.10;99.90;;;;;;12390366;28;20058;-35
2024/01/16 16:12:50;;;;;;;126.25;116.53;;;0.10;99.90;;;;;;12344384;28;20660;-34
2024/01/16 16:18:52;;;;;;;128.25;118.45;;;0.10;99.90;;;;;;12359666;28;20143;-35
2024/01/16 16:24:54;;;;;;;124.00;114.50;;;0.20;99.90;;;;;;12357372;28;20513;-33
2024/01/16 16:30:56;;;;;;;154.27;136.48;;;0.20;99.90;;;;;;12396453;28;20061;-34
2024/01/16 16:36:57;;;;;;;125.25;115.32;;;0.10;99.90;;;;;;12359105;28;20058;-35
2024/01/16 16:43:00;;;;;;;121.22;112.32;;;0.10;99.90;;;;;;12359179;28;20437;-35
2024/01/16 16:49:02;;;;;;;121.88;112.57;;;0.20;99.90;;;;;;12371166;28;20452;-35
2024/01/16 16:55:05;;;;;;;122.05;112.85;;;0.10;99.90;;;;;;12344205;28;20082;-34
2024/01/16 17:01:08;;;;;;;118.13;109.20;;;0.10;99.90;;;;;;12370121;28;20043;-35
2024/01/16 17:07:10;;;;;;;120.25;110.97;;;0.10;99.90;;;;;;12366955;28;20051;-34
2024/01/16 17:13:14;;;;;;;;;;;0.00;99.90;;;;;;12352794;28;20054;-35
2024/01/16 17:19:16;;;;;;;124.72;114.90;;;0.00;99.90;;;;;;12344683;28;19922;-35
2024/01/16 17:25:18;;;;;;;121.18;111.82;;;-0.10;99.90;;;;;;12363079;28;20054;-35
2024/01/16 17:31:21;;;;;;;118.60;108.95;;;-0.20;99.90;;;;;;12371143;28;20061;-34
2024/01/16 17:37:22;;;;;;;117.43;108.40;;;-0.30;99.90;;;;;;12369935;28;20046;-35
2024/01/16 17:43:25;;;;;;;115.65;106.68;;;-0.30;99.90;;;;;;12398557;28;20042;-35
2024/01/16 17:49:27;;;;;;;121.78;112.97;;;-0.30;99.90;;;;;;12357350;28;20495;-35
2024/01/16 17:55:33;;;;;;;119.13;110.65;;;-0.40;99.90;;;;;;12358552;28;20058;-35
2024/01/16 18:01:34;;;;;;;115.53;107.57;;;-0.50;99.90;;;;;;12347526;28;20055;-35
2024/01/16 18:07:42;;;;;;;115.15;107.20;;;-0.60;99.90;;;;;;12363954;28;20047;-33
2024/01/16 18:13:45;;;;;;;116.28;108.00;;;-0.70;99.90;;;;;;12351384;28;20074;-35
2024/01/16 18:19:49;;;;;;;113.50;105.60;;;-0.70;99.90;;;;;;12343575;28;20080;-35
2024/01/16 18:25:51;;;;;;;116.45;107.70;;;-0.80;99.90;;;;;;12364346;28;20090;-35
2024/01/16 18:31:58;;;;;;;111.93;103.68;;;-0.80;99.90;;;;;;12343460;28;20129;-35
2024/01/16 18:38:00;;;;;;;114.97;106.55;;;-0.80;99.90;;;;;;12341382;28;20050;-35
2024/01/16 18:44:01;;;;;;;114.35;105.95;;;-0.80;99.90;;;;;;12373491;28;20133;-34
2024/01/16 18:50:04;;;;;;;112.45;103.93;;;-0.90;99.90;;;;;;12365910;28;20057;-35
2024/01/16 18:56:06;;;;;;;110.18;102.07;;;-0.90;99.90;;;;;;12339916;28;20422;-35
2024/01/16 19:02:08;;;;;;;109.07;100.95;;;-1.00;99.90;;;;;;12364898;28;20491;-35
2024/01/16 19:08:11;;;;;;;109.22;101.30;;;-1.00;99.90;;;;;;12364347;28;20103;-35
2024/01/16 19:14:12;;;;;;;113.13;104.63;;;-1.00;99.90;;;;;;12385270;28;20053;-35
2024/01/16 19:20:15;;;;;;;110.65;102.63;;;-1.00;99.90;;;;;;12362988;28;20097;-35
2024/01/16 19:26:17;;;;;;;107.43;99.22;;;-1.10;99.90;;;;;;12360257;28;20058;-35
2024/01/16 19:32:19;;;;;;;108.82;100.72;;;-1.00;99.90;;;;;;12364518;28;20050;-35
2024/01/16 19:38:21;;;;;;;111.13;102.32;;;-0.90;99.90;;;;;;12366923;28;20406;-35
2024/01/16 19:44:24;;;;;;;114.10;105.60;;;-0.90;99.90;;;;;;12394361;28;20057;-35
2024/01/16 19:50:28;;;;;;;114.60;105.97;;;-1.00;99.90;;;;;;12376655;28;20051;-35
2024/01/16 19:56:30;;;;;;;116.18;107.90;;;-1.00;99.90;;;;;;12358845;28;20055;-35
2024/01/16 20:02:32;;;;;;;115.20;106.70;;;-1.10;99.90;;;;;;12377768;28;20406;-35
2024/01/16 20:08:34;;;;;;;116.65;107.95;;;-1.20;99.90;;;;;;12378207;28;20057;-35
2024/01/16 20:14:38;;;;;;;118.47;109.80;;;-1.20;99.90;;;;;;12360783;28;20053;-35
2024/01/16 20:20:40;;;;;;;123.63;114.10;;;-1.30;99.90;;;;;;12364193;28;20109;-35
2024/01/16 20:26:43;;;;;;;120.00;111.35;;;-1.40;99.90;;;;;;12355374;28;20793;-36
2024/01/16 20:32:46;;;;;;;121.88;112.85;;;-1.40;99.90;;;;;;12360751;28;20484;-35
2024/01/16 20:38:48;;;;;;;121.68;112.63;;;-1.40;99.90;;;;;;12355595;28;20057;-35
2024/01/16 20:44:50;;;;;;;120.25;111.47;;;-1.50;99.90;;;;;;12389045;28;20051;-35
2024/01/16 20:50:52;;;;;;;122.28;113.18;;;-1.60;99.90;;;;;;12368060;28;20089;-35
2024/01/16 20:56:54;;;;;;;120.63;112.25;;;-1.60;99.90;;;;;;12361601;28;20046;-35
2024/01/16 21:02:56;;;;;;;119.55;110.82;;;-1.60;99.90;;;;;;12368433;28;20043;-36
2024/01/16 21:08:58;;;;;;;119.00;110.57;;;-1.60;99.90;;;;;;12371480;28;20053;-35
2024/01/16 21:15:00;;;;;;;118.32;109.65;;;-1.70;99.90;;;;;;12351978;28;20102;-35
2024/01/16 21:21:05;;;;;;;117.22;108.88;;;-1.70;99.90;;;;;;12391866;28;20415;-35
2024/01/16 21:27:07;;;;;;;;;;;-1.70;99.90;;;;;;12359863;28;20085;-35
2024/01/16 21:33:10;;;;;;;119.80;111.50;;;-1.80;99.90;;;;;;12348637;28;20068;-35
2024/01/16 21:39:12;;;;;;;123.82;115.32;;;-1.80;99.90;;;;;;12353347;28;20051;-35
2024/01/16 21:45:15;;;;;;;125.57;116.78;;;-1.80;99.90;;;;;;12386648;28;20061;-35
2024/01/16 21:51:17;;;;;;;123.32;114.53;;;-1.80;99.90;;;;;;12358659;28;20058;-35
2024/01/16 21:57:19;;;;;;;115.82;107.22;;;-1.80;99.90;;;;;;12344992;28;20057;-35
2024/01/16 22:03:21;;;;;;;114.05;105.60;;;-1.80;99.90;;;;;;12357010;28;20050;-35
2024/01/16 22:09:27;;;;;;;113.85;105.43;;;-1.70;99.90;;;;;;12366485;28;20070;-35
2024/01/16 22:15:29;;;;;;;116.95;108.45;;;-1.80;99.90;;;;;;12359401;28;20054;-35
2024/01/16 22:21:32;;;;;;;122.68;113.72;;;-1.80;99.90;;;;;;12373271;28;20085;-35
2024/01/16 22:27:34;;;;;;;117.73;109.23;;;-1.80;99.90;;;;;;12353849;28;20047;-34
2024/01/16 22:33:36;;;;;;;119.85;111.20;;;-1.80;99.90;;;;;;12345426;28;20129;-35
2024/01/16 22:39:41;;;;;;;119.68;110.93;;;-1.80;99.90;;;;;;12364701;28;20051;-35
2024/01/16 22:45:45;;;;;;;121.88;113.00;;;-1.80;99.90;;;;;;12412968;28;20055;-35
2024/01/16 22:51:47;;;;;;;122.93;113.77;;;-1.80;99.90;;;;;;12355745;28;20051;-35
2024/01/16 22:57:49;;;;;;;122.82;114.05;;;-1.90;99.90;;;;;;12378617;28;20054;-35
2024/01/16 23:03:56;;;;;;;120.18;112.18;;;-1.80;99.90;;;;;;12366342;28;20054;-35
2024/01/16 23:09:58;;;;;;;116.78;108.97;;;-1.90;99.90;;;;;;12368736;28;20043;-35
2024/01/16 23:16:00;;;;;;;124.18;115.38;;;-1.90;99.90;;;;;;12361433;28;20078;-34
2024/01/16 23:22:02;;;;;;;125.70;117.53;;;-2.00;99.90;;;;;;12366294;28;20085;-35
2024/01/16 23:28:05;;;;;;;123.40;114.95;;;-2.00;99.90;;;;;;12365712;28;20046;-35
2024/01/16 23:34:07;;;;;;;126.20;118.07;;;-2.00;99.90;;;;;;12346717;28;20047;-35
2024/01/16 23:40:11;;;;;;;124.30;116.32;;;-2.00;99.90;;;;;;12356291;28;20204;-35
2024/01/16 23:46:15;;;;;;;125.55;117.18;;;-2.10;99.90;;;;;;12394681;28;20119;-35
2024/01/16 23:52:18;;;;;;;124.10;116.30;;;-2.10;99.90;;;;;;12350725;28;20531;-35
2024/01/16 23:58:22;;;;;;;126.78;118.38;;;-2.10;99.90;;;;;;12396024;28;20054;-35
